EZY88E EGPH-EGKK
Flight info
| Callsign | EZY88E |
|---|---|
| Flight time | 1h 12m |
| Altitude | 37000 |
| Route | GOSAM1C GOSAM P600 FENIK L612 NAVSO DCT ADZOP DCT EGTOC DCT KEPAD L151 DISIT DISIT1G |
| Aircraft | A319/M-VGDW/C |
Departure
| Time | 2026-05-07 21:59 |
|---|---|
| Airport | Edinburgh Airport (EGPH) |
Arrival
| Time | 2026-05-07 23:11 |
|---|---|
| Airport | London Gatwick Airport (EGKK) |
| Time | Latitude | Longitude | Altitude | Speed | Heading |
|---|---|---|---|---|---|
| 2026-05-07 21:43 | 55.94657 | -3.36612 | 117 ft | 0 kts | 89° |
| 2026-05-07 21:49 | 55.94657 | -3.36621 | 112 ft | 4 kts | 88° |
| 2026-05-07 21:50 | 55.94654 | -3.36668 | 114 ft | 4 kts | 74° |
| 2026-05-07 21:50 | 55.94644 | -3.36711 | 112 ft | 4 kts | 49° |
| 2026-05-07 21:50 | 55.94625 | -3.36734 | 112 ft | 2 kts | 1° |
| 2026-05-07 21:50 | 55.94622 | -3.36734 | 116 ft | 0 kts | 359° |
| 2026-05-07 21:53 | 55.94624 | -3.36734 | 113 ft | 2 kts | 359° |
| 2026-05-07 21:53 | 55.94656 | -3.36735 | 116 ft | 8 kts | 359° |
| 2026-05-07 21:53 | 55.94727 | -3.36736 | 116 ft | 12 kts | 359° |
| 2026-05-07 21:54 | 55.94805 | -3.36777 | 116 ft | 12 kts | 358° |
| 2026-05-07 21:54 | 55.94891 | -3.36801 | 116 ft | 13 kts | 330° |
| 2026-05-07 21:54 | 55.94967 | -3.36772 | 113 ft | 13 kts | 58° |
| 2026-05-07 21:54 | 55.95020 | -3.36617 | 113 ft | 16 kts | 59° |
| 2026-05-07 21:55 | 55.95078 | -3.36445 | 113 ft | 17 kts | 59° |
| 2026-05-07 21:55 | 55.95138 | -3.36267 | 114 ft | 17 kts | 58° |
| 2026-05-07 21:55 | 55.95202 | -3.36080 | 114 ft | 18 kts | 59° |
| 2026-05-07 21:55 | 55.95269 | -3.35884 | 112 ft | 19 kts | 59° |
| 2026-05-07 21:56 | 55.95338 | -3.35681 | 115 ft | 19 kts | 59° |
| 2026-05-07 21:56 | 55.95409 | -3.35472 | 113 ft | 20 kts | 59° |
| 2026-05-07 21:56 | 55.95491 | -3.35435 | 115 ft | 14 kts | 329° |
| 2026-05-07 21:56 | 55.95568 | -3.35554 | 113 ft | 16 kts | 277° |
| 2026-05-07 21:57 | 55.95546 | -3.35638 | 113 ft | 0 kts | 239° |
| 2026-05-07 21:58 | 55.95513 | -3.35738 | 114 ft | 36 kts | 239° |
| 2026-05-07 21:58 | 55.95228 | -3.36574 | 113 ft | 117 kts | 239° |
| 2026-05-07 21:58 | 55.94724 | -3.38034 | 439 ft | 145 kts | 236° |
| 2026-05-07 21:59 | 55.94195 | -3.39564 | 1262 ft | 144 kts | 234° |
| 2026-05-07 21:59 | 55.93645 | -3.41149 | 1897 ft | 160 kts | 234° |
| 2026-05-07 21:59 | 55.93017 | -3.42956 | 2357 ft | 184 kts | 236° |
| 2026-05-07 21:59 | 55.92300 | -3.45028 | 2911 ft | 209 kts | 237° |
| 2026-05-07 22:00 | 55.91521 | -3.47287 | 3549 ft | 231 kts | 237° |
| 2026-05-07 22:00 | 55.90684 | -3.49803 | 4498 ft | 242 kts | 243° |
| 2026-05-07 22:00 | 55.90241 | -3.52745 | 5478 ft | 252 kts | 257° |
| 2026-05-07 22:00 | 55.89942 | -3.55777 | 5856 ft | 255 kts | 257° |
| 2026-05-07 22:01 | 55.89640 | -3.58885 | 5987 ft | 255 kts | 257° |
| 2026-05-07 22:01 | 55.89335 | -3.61993 | 6004 ft | 254 kts | 257° |
| 2026-05-07 22:01 | 55.89028 | -3.65099 | 6000 ft | 254 kts | 257° |
| 2026-05-07 22:01 | 55.88718 | -3.68200 | 6006 ft | 254 kts | 257° |
| 2026-05-07 22:02 | 55.88405 | -3.71301 | 5998 ft | 254 kts | 257° |
| 2026-05-07 22:02 | 55.88092 | -3.74391 | 5997 ft | 254 kts | 257° |
| 2026-05-07 22:02 | 55.87778 | -3.77489 | 5986 ft | 254 kts | 257° |
| 2026-05-07 22:02 | 55.87465 | -3.80586 | 5992 ft | 254 kts | 257° |
| 2026-05-07 22:03 | 55.87156 | -3.83686 | 5982 ft | 254 kts | 257° |
| 2026-05-07 22:03 | 55.86853 | -3.86751 | 5983 ft | 254 kts | 257° |
| 2026-05-07 22:03 | 55.86547 | -3.89858 | 5986 ft | 255 kts | 257° |
| 2026-05-07 22:03 | 55.86241 | -3.92964 | 5995 ft | 255 kts | 257° |
| 2026-05-07 22:04 | 55.85926 | -3.96083 | 6211 ft | 258 kts | 257° |
| 2026-05-07 22:04 | 55.85606 | -3.99218 | 7352 ft | 258 kts | 257° |
| 2026-05-07 22:04 | 55.85285 | -4.02373 | 8464 ft | 261 kts | 257° |
| 2026-05-07 22:04 | 55.84962 | -4.05568 | 9537 ft | 264 kts | 257° |
| 2026-05-07 22:05 | 55.84620 | -4.08831 | 10346 ft | 277 kts | 254° |
| 2026-05-07 22:05 | 55.83909 | -4.12143 | 10823 ft | 296 kts | 239° |
| 2026-05-07 22:05 | 55.82661 | -4.15097 | 11637 ft | 303 kts | 225° |
| 2026-05-07 22:05 | 55.81000 | -4.17436 | 12571 ft | 307 kts | 215° |
| 2026-05-07 22:06 | 55.79248 | -4.19572 | 13486 ft | 311 kts | 215° |
| 2026-05-07 22:06 | 55.77457 | -4.21765 | 14327 ft | 315 kts | 216° |
| 2026-05-07 22:06 | 55.75653 | -4.24004 | 15147 ft | 318 kts | 215° |
| 2026-05-07 22:06 | 55.73685 | -4.25841 | 15955 ft | 323 kts | 201° |
| 2026-05-07 22:07 | 55.71465 | -4.26660 | 16761 ft | 331 kts | 186° |
| 2026-05-07 22:07 | 55.69158 | -4.26305 | 17512 ft | 341 kts | 170° |
| 2026-05-07 22:07 | 55.66916 | -4.24708 | 18284 ft | 353 kts | 156° |
| 2026-05-07 22:07 | 55.64760 | -4.22570 | 18972 ft | 356 kts | 155° |
| 2026-05-07 22:08 | 55.62585 | -4.20424 | 19661 ft | 360 kts | 155° |
| 2026-05-07 22:08 | 55.60460 | -4.18334 | 20341 ft | 363 kts | 155° |
| 2026-05-07 22:08 | 55.58252 | -4.16170 | 21024 ft | 366 kts | 156° |
| 2026-05-07 22:08 | 55.56014 | -4.13981 | 21716 ft | 369 kts | 156° |
| 2026-05-07 22:09 | 55.53756 | -4.11779 | 22396 ft | 373 kts | 156° |
| 2026-05-07 22:09 | 55.51471 | -4.09557 | 23074 ft | 376 kts | 156° |
| 2026-05-07 22:09 | 55.49167 | -4.07318 | 23711 ft | 380 kts | 156° |
| 2026-05-07 22:09 | 55.46847 | -4.05061 | 24256 ft | 383 kts | 155° |
| 2026-05-07 22:10 | 55.44506 | -4.02786 | 24772 ft | 386 kts | 155° |
| 2026-05-07 22:10 | 55.42145 | -4.00493 | 25292 ft | 389 kts | 155° |
| 2026-05-07 22:10 | 55.39761 | -3.98183 | 25848 ft | 392 kts | 155° |
| 2026-05-07 22:10 | 55.37395 | -3.95894 | 26371 ft | 395 kts | 155° |
| 2026-05-07 22:11 | 55.34980 | -3.93563 | 26887 ft | 397 kts | 155° |
| 2026-05-07 22:11 | 55.32545 | -3.91215 | 27393 ft | 400 kts | 155° |
| 2026-05-07 22:11 | 55.30100 | -3.88860 | 27895 ft | 402 kts | 155° |
| 2026-05-07 22:11 | 55.27639 | -3.86493 | 28411 ft | 405 kts | 155° |
| 2026-05-07 22:12 | 55.25153 | -3.84108 | 28851 ft | 409 kts | 155° |
| 2026-05-07 22:12 | 55.22634 | -3.81791 | 29311 ft | 410 kts | 159° |
| 2026-05-07 22:12 | 55.19955 | -3.80064 | 29748 ft | 410 kts | 166° |
| 2026-05-07 22:12 | 55.17220 | -3.78568 | 30164 ft | 414 kts | 166° |
| 2026-05-07 22:13 | 55.14461 | -3.77056 | 30548 ft | 417 kts | 166° |
| 2026-05-07 22:13 | 55.11681 | -3.75533 | 30927 ft | 419 kts | 166° |
| 2026-05-07 22:13 | 55.09855 | -3.74536 | 31180 ft | 421 kts | 166° |
| 2026-05-07 22:13 | 55.06099 | -3.72482 | 31680 ft | 424 kts | 166° |
| 2026-05-07 22:14 | 55.04232 | -3.71462 | 31924 ft | 426 kts | 166° |
| 2026-05-07 22:14 | 55.01408 | -3.69922 | 32430 ft | 424 kts | 166° |
| 2026-05-07 22:14 | 54.98593 | -3.68385 | 32970 ft | 423 kts | 166° |
| 2026-05-07 22:14 | 54.95793 | -3.66860 | 33490 ft | 422 kts | 166° |
| 2026-05-07 22:15 | 54.92989 | -3.65340 | 33963 ft | 422 kts | 166° |
| 2026-05-07 22:15 | 54.90186 | -3.63826 | 34380 ft | 422 kts | 166° |
| 2026-05-07 22:15 | 54.87383 | -3.62312 | 34763 ft | 422 kts | 166° |
| 2026-05-07 22:15 | 54.84573 | -3.60795 | 35115 ft | 423 kts | 166° |
| 2026-05-07 22:16 | 54.81757 | -3.59279 | 35438 ft | 424 kts | 166° |
| 2026-05-07 22:16 | 54.78931 | -3.57759 | 35766 ft | 425 kts | 166° |
| 2026-05-07 22:16 | 54.76105 | -3.56241 | 36082 ft | 426 kts | 166° |
| 2026-05-07 22:16 | 54.73275 | -3.54720 | 36389 ft | 427 kts | 166° |
| 2026-05-07 22:17 | 54.70434 | -3.53195 | 36694 ft | 427 kts | 166° |
| 2026-05-07 22:17 | 54.67586 | -3.51668 | 36933 ft | 429 kts | 166° |
| 2026-05-07 22:17 | 54.61904 | -3.48615 | 37006 ft | 426 kts | 166° |
| 2026-05-07 22:18 | 54.53447 | -3.44100 | 37011 ft | 425 kts | 166° |
| 2026-05-07 22:19 | 54.47802 | -3.41112 | 37015 ft | 425 kts | 166° |
| 2026-05-07 22:19 | 54.42151 | -3.38129 | 37016 ft | 425 kts | 166° |
| 2026-05-07 22:20 | 54.36492 | -3.35145 | 37020 ft | 426 kts | 166° |
| 2026-05-07 22:20 | 54.30918 | -3.32218 | 37020 ft | 426 kts | 166° |
| 2026-05-07 22:21 | 54.25283 | -3.29267 | 37018 ft | 425 kts | 166° |
| 2026-05-07 22:21 | 54.19621 | -3.26307 | 37004 ft | 425 kts | 167° |
| 2026-05-07 22:22 | 54.13820 | -3.24875 | 37013 ft | 421 kts | 178° |
| 2026-05-07 22:22 | 54.07986 | -3.23974 | 37013 ft | 421 kts | 177° |
| 2026-05-07 22:23 | 54.02143 | -3.23053 | 37018 ft | 422 kts | 176° |
| 2026-05-07 22:23 | 53.96466 | -3.20424 | 37028 ft | 427 kts | 162° |
| 2026-05-07 22:24 | 53.90924 | -3.16820 | 37021 ft | 427 kts | 162° |
| 2026-05-07 22:24 | 53.85382 | -3.13263 | 37013 ft | 427 kts | 162° |
| 2026-05-07 22:25 | 53.79846 | -3.09725 | 37020 ft | 428 kts | 162° |
| 2026-05-07 22:25 | 53.74272 | -3.06167 | 37025 ft | 428 kts | 162° |
| 2026-05-07 22:26 | 53.68700 | -3.02601 | 37020 ft | 428 kts | 162° |
| 2026-05-07 22:26 | 53.63133 | -2.99046 | 37033 ft | 428 kts | 162° |
| 2026-05-07 22:27 | 53.57560 | -2.95500 | 37037 ft | 428 kts | 162° |
| 2026-05-07 22:27 | 53.51991 | -2.91977 | 37037 ft | 428 kts | 162° |
| 2026-05-07 22:28 | 53.46416 | -2.88470 | 37041 ft | 428 kts | 162° |
| 2026-05-07 22:28 | 53.40846 | -2.84977 | 37058 ft | 428 kts | 162° |
| 2026-05-07 22:29 | 53.35304 | -2.81496 | 37060 ft | 428 kts | 162° |
| 2026-05-07 22:29 | 53.29728 | -2.78006 | 37051 ft | 428 kts | 162° |
| 2026-05-07 22:30 | 53.24159 | -2.74525 | 37055 ft | 428 kts | 162° |
| 2026-05-07 22:30 | 53.18574 | -2.71043 | 37046 ft | 428 kts | 162° |
| 2026-05-07 22:31 | 53.13016 | -2.67593 | 37047 ft | 428 kts | 162° |
| 2026-05-07 22:31 | 53.07432 | -2.64140 | 37055 ft | 428 kts | 162° |
| 2026-05-07 22:32 | 53.01850 | -2.60702 | 37057 ft | 428 kts | 162° |
| 2026-05-07 22:32 | 52.96276 | -2.57263 | 37044 ft | 427 kts | 162° |
| 2026-05-07 22:33 | 52.90696 | -2.53835 | 37039 ft | 428 kts | 162° |
| 2026-05-07 22:33 | 52.87901 | -2.52125 | 36781 ft | 428 kts | 162° |
| 2026-05-07 22:33 | 52.85110 | -2.50419 | 36510 ft | 426 kts | 162° |
| 2026-05-07 22:33 | 52.82349 | -2.48705 | 36041 ft | 423 kts | 160° |
| 2026-05-07 22:34 | 52.79728 | -2.46493 | 35495 ft | 423 kts | 150° |
| 2026-05-07 22:34 | 52.77281 | -2.43798 | 34956 ft | 422 kts | 149° |
| 2026-05-07 22:34 | 52.74885 | -2.41138 | 34410 ft | 420 kts | 149° |
| 2026-05-07 22:34 | 52.72472 | -2.38472 | 33815 ft | 418 kts | 149° |
| 2026-05-07 22:35 | 52.70055 | -2.35810 | 33255 ft | 414 kts | 149° |
| 2026-05-07 22:35 | 52.67672 | -2.33191 | 32719 ft | 410 kts | 149° |
| 2026-05-07 22:35 | 52.65306 | -2.30594 | 32192 ft | 406 kts | 149° |
| 2026-05-07 22:35 | 52.62964 | -2.28028 | 31673 ft | 403 kts | 149° |
| 2026-05-07 22:36 | 52.60640 | -2.25483 | 31159 ft | 400 kts | 149° |
| 2026-05-07 22:36 | 52.58331 | -2.22959 | 30649 ft | 397 kts | 149° |
| 2026-05-07 22:36 | 52.56040 | -2.20462 | 30136 ft | 394 kts | 149° |
| 2026-05-07 22:36 | 52.53764 | -2.17984 | 29591 ft | 390 kts | 149° |
| 2026-05-07 22:37 | 52.51513 | -2.15530 | 29107 ft | 386 kts | 149° |
| 2026-05-07 22:37 | 52.49293 | -2.13110 | 28627 ft | 382 kts | 149° |
| 2026-05-07 22:37 | 52.47086 | -2.10706 | 28161 ft | 378 kts | 149° |
| 2026-05-07 22:37 | 52.44903 | -2.08333 | 27715 ft | 375 kts | 149° |
| 2026-05-07 22:38 | 52.42737 | -2.05985 | 27278 ft | 372 kts | 149° |
| 2026-05-07 22:38 | 52.40586 | -2.03654 | 26840 ft | 369 kts | 149° |
| 2026-05-07 22:38 | 52.38458 | -2.01345 | 26415 ft | 366 kts | 149° |
| 2026-05-07 22:38 | 52.36345 | -1.99057 | 25983 ft | 362 kts | 149° |
| 2026-05-07 22:39 | 52.34264 | -1.96813 | 25550 ft | 359 kts | 149° |
| 2026-05-07 22:39 | 52.32182 | -1.94575 | 25122 ft | 356 kts | 149° |
| 2026-05-07 22:39 | 52.30115 | -1.92355 | 24661 ft | 354 kts | 149° |
| 2026-05-07 22:39 | 52.28061 | -1.90149 | 24205 ft | 352 kts | 149° |
| 2026-05-07 22:40 | 52.26020 | -1.87959 | 23736 ft | 350 kts | 149° |
| 2026-05-07 22:40 | 52.23987 | -1.85777 | 23222 ft | 349 kts | 149° |
| 2026-05-07 22:40 | 52.21968 | -1.83608 | 22748 ft | 346 kts | 149° |
| 2026-05-07 22:40 | 52.19979 | -1.81472 | 22287 ft | 343 kts | 149° |
| 2026-05-07 22:41 | 52.17993 | -1.79345 | 21837 ft | 341 kts | 149° |
| 2026-05-07 22:41 | 52.16019 | -1.77233 | 21391 ft | 338 kts | 149° |
| 2026-05-07 22:41 | 52.14057 | -1.75141 | 20934 ft | 336 kts | 149° |
| 2026-05-07 22:41 | 52.12104 | -1.73062 | 20494 ft | 335 kts | 149° |
| 2026-05-07 22:42 | 52.10167 | -1.70999 | 20048 ft | 333 kts | 149° |
| 2026-05-07 22:42 | 52.08260 | -1.68966 | 19769 ft | 337 kts | 149° |
| 2026-05-07 22:42 | 52.06257 | -1.66834 | 19477 ft | 338 kts | 149° |
| 2026-05-07 22:42 | 52.04316 | -1.64768 | 19181 ft | 337 kts | 149° |
| 2026-05-07 22:43 | 52.02359 | -1.62687 | 18877 ft | 336 kts | 149° |
| 2026-05-07 22:43 | 52.00404 | -1.60615 | 18590 ft | 335 kts | 149° |
| 2026-05-07 22:43 | 51.98459 | -1.58558 | 18297 ft | 333 kts | 149° |
| 2026-05-07 22:43 | 51.96520 | -1.56510 | 17975 ft | 332 kts | 149° |
| 2026-05-07 22:44 | 51.94588 | -1.54474 | 17689 ft | 331 kts | 149° |
| 2026-05-07 22:44 | 51.92663 | -1.52447 | 17396 ft | 329 kts | 149° |
| 2026-05-07 22:44 | 51.90745 | -1.50426 | 17118 ft | 328 kts | 149° |
| 2026-05-07 22:44 | 51.88834 | -1.48413 | 16831 ft | 327 kts | 149° |
| 2026-05-07 22:45 | 51.86933 | -1.46411 | 16546 ft | 325 kts | 149° |
| 2026-05-07 22:45 | 51.85040 | -1.44419 | 16257 ft | 324 kts | 149° |
| 2026-05-07 22:45 | 51.83155 | -1.42438 | 15979 ft | 323 kts | 149° |
| 2026-05-07 22:45 | 51.81275 | -1.40470 | 15701 ft | 321 kts | 149° |
| 2026-05-07 22:46 | 51.79398 | -1.38507 | 15411 ft | 320 kts | 149° |
| 2026-05-07 22:46 | 51.77537 | -1.36563 | 15135 ft | 319 kts | 149° |
| 2026-05-07 22:46 | 51.75679 | -1.34619 | 14962 ft | 318 kts | 149° |
| 2026-05-07 22:46 | 51.73819 | -1.32673 | 14845 ft | 318 kts | 149° |
| 2026-05-07 22:47 | 51.71966 | -1.30739 | 14715 ft | 317 kts | 150° |
| 2026-05-07 22:47 | 51.70128 | -1.28822 | 14585 ft | 317 kts | 150° |
| 2026-05-07 22:47 | 51.68277 | -1.26895 | 14450 ft | 316 kts | 150° |
| 2026-05-07 22:47 | 51.66428 | -1.24971 | 14328 ft | 316 kts | 150° |
| 2026-05-07 22:48 | 51.64586 | -1.23055 | 14191 ft | 315 kts | 150° |
| 2026-05-07 22:48 | 51.62741 | -1.21142 | 14066 ft | 315 kts | 150° |
| 2026-05-07 22:48 | 51.60903 | -1.19241 | 13932 ft | 314 kts | 150° |
| 2026-05-07 22:48 | 51.59065 | -1.17337 | 13796 ft | 314 kts | 150° |
| 2026-05-07 22:49 | 51.57236 | -1.15437 | 13659 ft | 313 kts | 150° |
| 2026-05-07 22:49 | 51.55410 | -1.13545 | 13528 ft | 313 kts | 150° |
| 2026-05-07 22:49 | 51.53581 | -1.11653 | 13393 ft | 312 kts | 150° |
| 2026-05-07 22:49 | 51.51752 | -1.09761 | 13271 ft | 312 kts | 150° |
| 2026-05-07 22:50 | 51.49932 | -1.07876 | 13141 ft | 311 kts | 150° |
| 2026-05-07 22:50 | 51.48116 | -1.05999 | 13018 ft | 311 kts | 150° |
| 2026-05-07 22:50 | 51.46321 | -1.04152 | 12889 ft | 310 kts | 150° |
| 2026-05-07 22:50 | 51.44509 | -1.02293 | 12761 ft | 309 kts | 150° |
| 2026-05-07 22:51 | 51.42700 | -1.00439 | 12634 ft | 309 kts | 150° |
| 2026-05-07 22:51 | 51.40887 | -0.98579 | 12505 ft | 309 kts | 150° |
| 2026-05-07 22:51 | 51.39080 | -0.96724 | 12376 ft | 308 kts | 150° |
| 2026-05-07 22:51 | 51.37296 | -0.94895 | 12250 ft | 308 kts | 150° |
| 2026-05-07 22:52 | 51.35482 | -0.93039 | 12135 ft | 308 kts | 150° |
| 2026-05-07 22:52 | 51.33676 | -0.91194 | 12007 ft | 308 kts | 150° |
| 2026-05-07 22:52 | 51.31871 | -0.89351 | 11865 ft | 307 kts | 150° |
| 2026-05-07 22:52 | 51.30089 | -0.87530 | 11739 ft | 307 kts | 150° |
| 2026-05-07 22:53 | 51.28299 | -0.85703 | 11612 ft | 307 kts | 150° |
| 2026-05-07 22:53 | 51.26501 | -0.83868 | 11491 ft | 306 kts | 150° |
| 2026-05-07 22:53 | 51.24702 | -0.82036 | 11360 ft | 306 kts | 150° |
| 2026-05-07 22:53 | 51.22912 | -0.80208 | 11231 ft | 306 kts | 150° |
| 2026-05-07 22:54 | 51.21127 | -0.78363 | 11107 ft | 305 kts | 150° |
| 2026-05-07 22:54 | 51.19340 | -0.76537 | 10927 ft | 305 kts | 150° |
| 2026-05-07 22:54 | 51.17552 | -0.74729 | 10680 ft | 304 kts | 151° |
| 2026-05-07 22:54 | 51.15782 | -0.72946 | 10440 ft | 303 kts | 151° |
| 2026-05-07 22:55 | 51.13999 | -0.71158 | 10194 ft | 303 kts | 151° |
| 2026-05-07 22:55 | 51.12230 | -0.69381 | 9986 ft | 296 kts | 151° |
| 2026-05-07 22:55 | 51.10513 | -0.67651 | 9854 ft | 292 kts | 151° |
| 2026-05-07 22:55 | 51.08800 | -0.65926 | 9721 ft | 291 kts | 151° |
| 2026-05-07 22:56 | 51.07103 | -0.64187 | 9591 ft | 291 kts | 147° |
| 2026-05-07 22:56 | 51.05596 | -0.62025 | 9453 ft | 293 kts | 134° |
| 2026-05-07 22:56 | 51.04418 | -0.59371 | 9320 ft | 295 kts | 120° |
| 2026-05-07 22:56 | 51.03507 | -0.56468 | 9202 ft | 295 kts | 118° |
| 2026-05-07 22:57 | 51.02598 | -0.53553 | 9060 ft | 294 kts | 118° |
| 2026-05-07 22:57 | 51.01708 | -0.50713 | 8941 ft | 293 kts | 118° |
| 2026-05-07 22:57 | 51.00787 | -0.47780 | 8797 ft | 292 kts | 118° |
| 2026-05-07 22:57 | 50.99884 | -0.44903 | 8674 ft | 291 kts | 118° |
| 2026-05-07 22:58 | 50.98981 | -0.42036 | 8540 ft | 290 kts | 118° |
| 2026-05-07 22:58 | 50.98083 | -0.39185 | 8258 ft | 288 kts | 117° |
| 2026-05-07 22:58 | 50.97191 | -0.36357 | 7980 ft | 285 kts | 117° |
| 2026-05-07 22:58 | 50.96306 | -0.33550 | 7694 ft | 283 kts | 117° |
| 2026-05-07 22:59 | 50.95440 | -0.30805 | 7428 ft | 281 kts | 117° |
| 2026-05-07 22:59 | 50.94566 | -0.28040 | 7081 ft | 279 kts | 117° |
| 2026-05-07 22:59 | 50.93668 | -0.25332 | 6706 ft | 276 kts | 123° |
| 2026-05-07 22:59 | 50.92775 | -0.23873 | 6452 ft | 274 kts | 146° |
| 2026-05-07 23:00 | 50.90445 | -0.22426 | 5932 ft | 271 kts | 157° |
| 2026-05-07 23:00 | 50.89020 | -0.20593 | 5542 ft | 265 kts | 122° |
| 2026-05-07 23:00 | 50.88548 | -0.17848 | 5161 ft | 261 kts | 86° |
| 2026-05-07 23:00 | 50.89006 | -0.15085 | 4775 ft | 260 kts | 68° |
| 2026-05-07 23:01 | 50.89553 | -0.13414 | 4510 ft | 260 kts | 59° |
| 2026-05-07 23:01 | 50.90718 | -0.11176 | 4118 ft | 260 kts | 43° |
| 2026-05-07 23:01 | 50.92263 | -0.09704 | 3731 ft | 261 kts | 21° |
| 2026-05-07 23:01 | 50.94054 | -0.09317 | 3349 ft | 263 kts | 357° |
| 2026-05-07 23:02 | 50.95768 | -0.10114 | 3028 ft | 264 kts | 332° |
| 2026-05-07 23:02 | 50.97167 | -0.12001 | 3005 ft | 267 kts | 308° |
| 2026-05-07 23:02 | 50.97990 | -0.14631 | 3007 ft | 268 kts | 283° |
| 2026-05-07 23:02 | 50.98322 | -0.17550 | 3006 ft | 269 kts | 278° |
| 2026-05-07 23:03 | 50.98656 | -0.20474 | 3010 ft | 269 kts | 281° |
| 2026-05-07 23:03 | 50.99085 | -0.23359 | 3010 ft | 269 kts | 283° |
| 2026-05-07 23:03 | 50.99560 | -0.26231 | 3010 ft | 269 kts | 284° |
| 2026-05-07 23:03 | 51.00048 | -0.29103 | 2989 ft | 269 kts | 284° |
| 2026-05-07 23:04 | 51.00530 | -0.31972 | 2990 ft | 269 kts | 284° |
| 2026-05-07 23:04 | 51.01003 | -0.34841 | 2990 ft | 269 kts | 284° |
| 2026-05-07 23:04 | 51.01471 | -0.37719 | 2991 ft | 269 kts | 284° |
| 2026-05-07 23:04 | 51.01928 | -0.40576 | 2992 ft | 269 kts | 283° |
| 2026-05-07 23:05 | 51.02386 | -0.43445 | 2993 ft | 269 kts | 283° |
| 2026-05-07 23:05 | 51.02846 | -0.46326 | 2993 ft | 269 kts | 283° |
| 2026-05-07 23:05 | 51.03303 | -0.49197 | 2992 ft | 265 kts | 283° |
| 2026-05-07 23:05 | 51.03762 | -0.51921 | 2988 ft | 245 kts | 289° |
| 2026-05-07 23:06 | 51.04727 | -0.53952 | 2989 ft | 224 kts | 331° |
| 2026-05-07 23:06 | 51.06153 | -0.54432 | 3008 ft | 212 kts | 8° |
| 2026-05-07 23:06 | 51.07767 | -0.54172 | 3005 ft | 250 kts | 8° |
| 2026-05-07 23:06 | 51.09438 | -0.53443 | 2985 ft | 250 kts | 36° |
| 2026-05-07 23:07 | 51.10506 | -0.51355 | 2992 ft | 245 kts | 73° |
| 2026-05-07 23:07 | 51.10753 | -0.48691 | 2989 ft | 245 kts | 86° |
| 2026-05-07 23:07 | 51.11037 | -0.46017 | 2992 ft | 246 kts | 80° |
| 2026-05-07 23:07 | 51.11404 | -0.43436 | 2979 ft | 230 kts | 79° |
| 2026-05-07 23:08 | 51.11750 | -0.41021 | 2805 ft | 221 kts | 79° |
| 2026-05-07 23:08 | 51.12081 | -0.38668 | 2546 ft | 213 kts | 79° |
| 2026-05-07 23:08 | 51.12389 | -0.36471 | 2254 ft | 201 kts | 79° |
| 2026-05-07 23:08 | 51.12683 | -0.34374 | 1982 ft | 186 kts | 80° |
| 2026-05-07 23:09 | 51.12950 | -0.32464 | 1749 ft | 166 kts | 80° |
| 2026-05-07 23:09 | 51.13182 | -0.30811 | 1530 ft | 142 kts | 80° |
| 2026-05-07 23:09 | 51.13385 | -0.29348 | 1342 ft | 131 kts | 80° |
| 2026-05-07 23:09 | 51.13576 | -0.27972 | 1166 ft | 127 kts | 80° |
| 2026-05-07 23:10 | 51.13766 | -0.26599 | 992 ft | 126 kts | 78° |
| 2026-05-07 23:10 | 51.13955 | -0.25239 | 815 ft | 126 kts | 78° |
| 2026-05-07 23:10 | 51.14141 | -0.23872 | 647 ft | 127 kts | 78° |
| 2026-05-07 23:10 | 51.14329 | -0.22516 | 481 ft | 126 kts | 76° |
| 2026-05-07 23:11 | 51.14525 | -0.21146 | 324 ft | 125 kts | 76° |
| 2026-05-07 23:11 | 51.14704 | -0.19818 | 219 ft | 113 kts | 76° |
| 2026-05-07 23:11 | 51.14849 | -0.18821 | 206 ft | 60 kts | 77° |
| 2026-05-07 23:11 | 51.14924 | -0.18563 | 205 ft | 14 kts | 54° |
| 2026-05-07 23:12 | 51.14984 | -0.18434 | 205 ft | 16 kts | 52° |
| 2026-05-07 23:12 | 51.15059 | -0.18286 | 209 ft | 19 kts | 50° |
| 2026-05-07 23:12 | 51.15130 | -0.18087 | 214 ft | 25 kts | 78° |
| 2026-05-07 23:12 | 51.15171 | -0.17790 | 214 ft | 28 kts | 78° |
| 2026-05-07 23:13 | 51.15214 | -0.17483 | 205 ft | 29 kts | 77° |
| 2026-05-07 23:13 | 51.15303 | -0.17386 | 205 ft | 16 kts | 287° |
| 2026-05-07 23:13 | 51.15341 | -0.17487 | 205 ft | 12 kts | 348° |
| 2026-05-07 23:13 | 51.15384 | -0.17501 | 205 ft | 0 kts | 348° |